KCSV/CSV METAR and TAF weather

Enter ICAO airport designator
Station Type Date Time Source
KCSV METAR 2022/09/26 07:53 UTC NOAA

KCSV 260753Z AUTO 27004KT 10SM CLR 10/09 A2996 RMK AO2 SLP133 T01000094


Station Type Date Time Source
KCSV Decoded METAR 2022/09/26 07:53 UTC NOAA

CROSSVILLE MEMORIAL AIRPORT , TN, United States (KCSV) 35-57N 85-05W 570M
Sep 26, 2022 - 03:53 AM EDT / 2022.09.26 0753 UTC
Wind: from the W (270 degrees) at 5 MPH (4 KT):0
Visibility: 10 mile(s):0
Sky conditions: clear
Temperature: 50.0 F (10.0 C)
Dew Point: 48.9 F (9.4 C)
Relative Humidity: 96%
Pressure (altimeter): 29.96 in. Hg (1014 hPa)
ob: KCSV 260753Z AUTO 27004KT 10SM CLR 10/09 A2996 RMK AO2 SLP133 T01000094
cycle: 8

Station Type Date Time Source
KCSV TAF 2022/09/26 06:24 UTC NOAA

TAF KCSV 260523Z 2606/2706 VRB03KT P6SM FEW050
TEMPO 2606/2610 4SM BR
FM261600 30012G19KT P6SM SKC
FM262300 30006KT P6SM SKC

Example: see airport list